Time;durP1;ratioP1;P1;durP2;ratioP2;P2;SDS_P1;SDS_P2;PMS_P1;PMS_P2;Temp;Humidity;BMP_temperature;BMP_pressure;BME280_temperature;BME280_humidity;BME280_pressure;Samples;Min_cycle;Max_cycle;Signal;HPM_P1;HPM_P2
2022/01/18 00:01:54;;;;;;;1.13;1.03;;;4.90;98.00;;;;;;5091986;28;20464;-66
2022/01/18 00:04:24;;;;;;;1.53;1.30;;;4.90;98.00;;;;;;5091993;28;20854;-66
2022/01/18 00:06:53;;;;;;;2.03;1.47;;;4.90;98.00;;;;;;5091870;28;20460;-66
2022/01/18 00:09:24;;;;;;;1.30;1.13;;;4.80;98.00;;;;;;5091812;28;20488;-67
2022/01/18 00:11:58;;;;;;;1.17;1.03;;;4.70;98.00;;;;;;5091747;28;20485;-66
2022/01/18 00:14:28;;;;;;;1.50;1.40;;;4.60;98.00;;;;;;5091937;28;20543;-66
2022/01/18 00:17:05;;;;;;;1.40;1.40;;;4.60;98.00;;;;;;5091650;28;20454;-67
2022/01/18 00:19:33;;;;;;;1.10;1.10;;;4.60;98.00;;;;;;5091653;28;20452;-66
2022/01/18 00:22:09;;;;;;;3.13;1.53;;;4.80;98.00;;;;;;5091707;28;20458;-66
2022/01/18 00:24:40;;;;;;;1.20;1.10;;;5.10;98.00;;;;;;5091923;28;20464;-66
2022/01/18 00:27:11;;;;;;;3.00;1.53;;;5.20;98.00;;;;;;5091883;28;20452;-66
2022/01/18 00:29:43;;;;;;;1.37;1.30;;;5.10;98.00;;;;;;5092029;28;20485;-67
2022/01/18 00:32:17;;;;;;;1.10;1.00;;;5.20;98.00;;;;;;5091992;28;20491;-67
2022/01/18 00:34:49;;;;;;;1.10;1.00;;;5.40;98.00;;;;;;5092214;28;21053;-66
2022/01/18 00:37:35;;;;;;;1.10;1.10;;;5.30;98.00;;;;;;5091571;28;20454;-67
2022/01/18 00:40:06;;;;;;;1.90;1.87;;;5.20;98.00;;;;;;5091922;28;20787;-67
2022/01/18 00:42:34;;;;;;;1.10;1.00;;;5.20;98.00;;;;;;5091492;28;20985;-66
2022/01/18 00:45:01;;;;;;;2.17;1.60;;;5.10;98.00;;;;;;5091459;28;20448;-66
2022/01/18 00:47:28;;;;;;;1.20;1.10;;;5.10;98.00;;;;;;5091792;28;20536;-66
2022/01/18 00:50:01;;;;;;;1.40;1.30;;;5.00;98.00;;;;;;5091393;28;20509;-66
2022/01/18 00:52:32;;;;;;;3.00;1.60;;;5.00;98.00;;;;;;5091372;28;20456;-66
2022/01/18 00:55:00;;;;;;;1.20;1.10;;;5.00;98.00;;;;;;5091349;28;20498;-66
2022/01/18 00:57:29;;;;;;;1.37;1.20;;;5.10;98.00;;;;;;5091335;28;20465;-66
2022/01/18 00:59:56;;;;;;;1.40;1.27;;;5.00;98.00;;;;;;5091248;28;20487;-66
2022/01/18 01:02:23;;;;;;;2.10;1.20;;;5.00;98.00;;;;;;5091125;28;20500;-66
2022/01/18 01:04:50;;;;;;;1.20;1.20;;;5.00;98.00;;;;;;5091351;28;20492;-65
2022/01/18 01:07:20;;;;;;;1.10;1.10;;;4.90;98.00;;;;;;5091339;28;20488;-66
2022/01/18 01:09:48;;;;;;;2.57;1.40;;;4.80;98.00;;;;;;5091518;28;20479;-66
2022/01/18 01:12:19;;;;;;;2.70;1.33;;;4.70;98.00;;;;;;5095032;28;20485;-66
2022/01/18 01:14:51;;;;;;;1.80;1.77;;;4.70;98.00;;;;;;5094977;28;20890;-66
2022/01/18 01:17:39;;;;;;;1.23;1.17;;;4.70;98.00;;;;;;5094956;28;21089;-66
2022/01/18 01:34:34;;;;;;;1.47;1.43;;;4.80;98.00;;;;;;5089891;28;20793;-65
2022/01/18 01:41:41;;;;;;;1.10;1.00;;;4.80;98.00;;;;;;5093599;28;20930;-66
2022/01/18 01:43:00;;;;;;;2.13;1.47;;;4.90;98.00;;;;;;5094839;28;20451;-66
2022/01/18 01:45:30;;;;;;;1.90;1.70;;;5.00;98.00;;;;;;5094792;28;20544;-66
2022/01/18 01:48:00;;;;;;;1.83;1.57;;;4.90;98.00;;;;;;5094338;28;20494;-66
2022/01/18 01:50:41;;;;;;;1.70;1.60;;;4.90;98.00;;;;;;5094635;28;20506;-66
2022/01/18 01:53:08;;;;;;;1.20;1.20;;;4.90;98.00;;;;;;5094760;28;21056;-66
2022/01/18 01:55:35;;;;;;;1.57;1.30;;;4.90;98.00;;;;;;5094623;28;20859;-66
2022/01/18 01:58:02;;;;;;;1.10;1.10;;;4.90;98.00;;;;;;5094318;28;21168;-66
2022/01/18 02:00:30;;;;;;;1.73;1.63;;;4.90;98.00;;;;;;5094403;28;20488;-66
2022/01/18 02:02:58;;;;;;;1.93;1.83;;;4.90;98.00;;;;;;5093891;28;20493;-66
2022/01/18 02:05:25;;;;;;;2.10;2.00;;;4.90;98.00;;;;;;5094338;28;20495;-66
2022/01/18 02:07:52;;;;;;;2.03;1.10;;;5.00;98.00;;;;;;5094030;28;20453;-66
2022/01/18 02:10:19;;;;;;;2.90;1.27;;;5.00;98.00;;;;;;5093840;28;20521;-66
2022/01/18 02:12:46;;;;;;;1.20;1.20;;;5.00;98.00;;;;;;5093884;28;20482;-66
2022/01/18 02:15:17;;;;;;;1.10;1.00;;;5.00;98.00;;;;;;5093400;28;20944;-66
2022/01/18 02:23:19;;;;;;;2.07;1.60;;;5.10;98.00;;;;;;5093722;28;20547;-66
2022/01/18 02:25:46;;;;;;;1.10;1.00;;;5.10;98.00;;;;;;5093666;28;20551;-66
2022/01/18 02:28:15;;;;;;;1.20;1.10;;;5.10;98.00;;;;;;5093631;28;20865;-66
2022/01/18 02:30:44;;;;;;;1.67;1.57;;;5.10;98.00;;;;;;5093335;28;20515;-66
2022/01/18 02:33:14;;;;;;;2.23;1.87;;;5.00;98.00;;;;;;5093409;28;20482;-66
2022/01/18 02:35:43;;;;;;;2.53;1.33;;;5.10;98.00;;;;;;5093460;28;20443;-67
2022/01/18 02:38:10;;;;;;;1.53;1.40;;;5.00;98.00;;;;;;5093553;28;20549;-66
2022/01/18 02:40:37;;;;;;;1.20;1.10;;;5.00;98.00;;;;;;5092305;28;20502;-66
2022/01/18 02:45:47;;;;;;;1.40;1.37;;;5.00;98.00;;;;;;5092909;28;20457;-66
2022/01/18 02:48:14;;;;;;;2.77;1.40;;;5.00;98.00;;;;;;5093230;28;20547;-66
2022/01/18 02:50:42;;;;;;;1.63;1.30;;;5.00;98.00;;;;;;5093217;28;20567;-65
2022/01/18 02:53:09;;;;;;;1.93;1.10;;;5.00;98.00;;;;;;5093188;28;20562;-66
2022/01/18 02:55:36;;;;;;;1.53;1.20;;;5.00;98.00;;;;;;5093157;28;20899;-66
2022/01/18 02:58:07;;;;;;;1.47;1.27;;;5.00;98.00;;;;;;5093182;28;20492;-67
2022/01/18 03:00:44;;;;;;;1.43;1.37;;;5.00;98.00;;;;;;5093060;28;20454;-67
2022/01/18 03:03:13;;;;;;;1.10;1.00;;;5.00;98.00;;;;;;5092925;28;21106;-66
2022/01/18 03:05:42;;;;;;;1.83;1.10;;;5.00;98.00;;;;;;5091157;28;20956;-66
2022/01/18 03:08:10;;;;;;;1.20;1.07;;;5.00;98.00;;;;;;5091733;28;20856;-66
2022/01/18 03:10:38;;;;;;;3.70;2.00;;;5.00;98.00;;;;;;5092916;28;20488;-66
2022/01/18 03:13:05;;;;;;;1.60;1.50;;;5.00;98.00;;;;;;5091546;28;20460;-66
2022/01/18 03:15:56;;;;;;;1.40;1.30;;;5.00;98.00;;;;;;5093034;28;20465;-65
2022/01/18 03:18:23;;;;;;;2.20;1.83;;;5.00;98.00;;;;;;5091896;28;20490;-66
2022/01/18 03:20:54;;;;;;;1.40;1.20;;;5.00;98.00;;;;;;5092720;28;20963;-66
2022/01/18 03:23:23;;;;;;;1.10;1.10;;;5.00;98.00;;;;;;5092917;28;20825;-65
2022/01/18 03:25:54;;;;;;;2.70;2.03;;;5.00;98.00;;;;;;5092931;28;20544;-65
2022/01/18 03:28:20;;;;;;;1.80;1.63;;;5.10;98.00;;;;;;5092593;28;20476;-66
2022/01/18 03:30:53;;;;;;;1.33;1.27;;;5.00;98.00;;;;;;5092533;28;20898;-67
2022/01/18 03:33:22;;;;;;;1.20;1.10;;;5.10;98.00;;;;;;5092197;28;20458;-65
2022/01/18 03:35:53;;;;;;;1.57;1.47;;;5.00;98.00;;;;;;5092438;28;20444;-66
2022/01/18 03:38:29;;;;;;;2.27;1.53;;;5.00;98.00;;;;;;5092426;28;20455;-67
2022/01/18 03:40:56;;;;;;;1.10;1.00;;;5.00;98.00;;;;;;5092369;28;20522;-66
2022/01/18 03:43:23;;;;;;;2.03;1.40;;;5.00;98.00;;;;;;5092128;28;20468;-66
2022/01/18 03:45:54;;;;;;;1.30;1.30;;;5.10;98.00;;;;;;5092160;28;20464;-66
2022/01/18 03:48:28;;;;;;;1.60;1.33;;;5.10;98.00;;;;;;5092077;28;20468;-66
2022/01/18 03:50:57;;;;;;;2.03;1.77;;;5.20;98.00;;;;;;5092073;28;20486;-66
2022/01/18 03:53:32;;;;;;;1.30;1.10;;;5.20;98.00;;;;;;5092044;28;20958;-67
2022/01/18 03:55:59;;;;;;;1.47;1.37;;;5.20;98.00;;;;;;5092143;28;20444;-67
2022/01/18 03:58:26;;;;;;;1.20;1.20;;;5.10;98.00;;;;;;5091975;28;20460;-65
2022/01/18 04:00:53;;;;;;;1.30;1.10;;;5.00;98.00;;;;;;5091885;28;20483;-66
2022/01/18 04:03:20;;;;;;;1.57;1.50;;;5.10;98.00;;;;;;5092104;28;21161;-66
2022/01/18 04:05:47;;;;;;;2.07;1.80;;;5.10;98.00;;;;;;5092044;28;20509;-66
2022/01/18 04:08:16;;;;;;;1.20;1.20;;;5.10;98.00;;;;;;5091843;28;20462;-66
2022/01/18 04:10:43;;;;;;;1.20;1.13;;;5.10;98.00;;;;;;5091983;28;21092;-66
2022/01/18 04:13:10;;;;;;;1.83;1.30;;;5.10;98.00;;;;;;5091818;28;20470;-66
2022/01/18 04:15:37;;;;;;;2.30;1.63;;;5.10;98.00;;;;;;5091884;28;20521;-66
2022/01/18 04:18:17;;;;;;;1.20;1.10;;;5.10;98.00;;;;;;5091514;28;21161;-66
2022/01/18 04:29:01;;;;;;;1.20;1.10;;;5.00;98.00;;;;;;5091794;28;20479;-66
2022/01/18 04:31:29;;;;;;;1.30;1.30;;;5.00;98.00;;;;;;5091513;28;20918;-66
2022/01/18 04:33:58;;;;;;;2.03;1.37;;;5.10;98.00;;;;;;5091746;28;20463;-66
2022/01/18 04:36:26;;;;;;;1.83;1.30;;;5.10;98.00;;;;;;5091664;28;20459;-66
2022/01/18 04:38:55;;;;;;;1.20;1.10;;;5.10;98.00;;;;;;5090507;28;20458;-66
2022/01/18 04:41:27;;;;;;;1.43;1.33;;;5.10;98.00;;;;;;5091682;28;20447;-66
2022/01/18 04:44:14;;;;;;;1.77;1.40;;;5.00;98.00;;;;;;5091813;28;20951;-67
2022/01/18 04:49:25;;;;;;;1.57;1.47;;;5.00;98.00;;;;;;5096140;28;20436;-65
2022/01/18 04:51:52;;;;;;;1.10;1.00;;;5.00;98.00;;;;;;5095539;28;20519;-65
2022/01/18 04:54:29;;;;;;;1.63;1.53;;;5.00;98.00;;;;;;5095148;28;20488;-66
2022/01/18 04:59:40;;;;;;;1.10;1.03;;;5.10;98.00;;;;;;5095220;28;21072;-67
2022/01/18 05:02:08;;;;;;;1.50;1.40;;;5.00;98.00;;;;;;5094974;28;20778;-66
2022/01/18 05:04:35;;;;;;;4.20;1.77;;;5.10;98.00;;;;;;5095407;28;20453;-66
2022/01/18 05:07:02;;;;;;;1.77;1.73;;;5.10;98.00;;;;;;5094986;28;20970;-66
2022/01/18 05:09:30;;;;;;;2.30;1.73;;;5.30;98.00;;;;;;5095114;28;20493;-66
2022/01/18 05:12:05;;;;;;;1.17;1.17;;;5.40;98.00;;;;;;5095040;28;20479;-66
2022/01/18 05:14:34;;;;;;;1.73;1.53;;;5.40;98.00;;;;;;5095109;28;20456;-66
2022/01/18 05:17:10;;;;;;;1.50;1.40;;;5.30;98.00;;;;;;5094731;28;20455;-67
2022/01/18 05:19:46;;;;;;;1.40;1.30;;;5.30;98.00;;;;;;5094925;28;20464;-66
2022/01/18 05:25:00;;;;;;;2.53;2.10;;;5.10;98.00;;;;;;5093927;28;20500;-66
2022/01/18 05:27:27;;;;;;;1.10;0.90;;;5.00;98.00;;;;;;5094752;28;20521;-66
2022/01/18 05:29:54;;;;;;;2.13;1.80;;;5.00;98.00;;;;;;5094696;28;20497;-66
2022/01/18 05:32:22;;;;;;;1.30;1.20;;;5.00;98.00;;;;;;5094555;28;20928;-66
2022/01/18 05:34:49;;;;;;;2.53;1.40;;;4.90;98.00;;;;;;5094279;28;20486;-66
2022/01/18 05:37:17;;;;;;;2.20;1.93;;;4.90;98.00;;;;;;5094534;28;20491;-66
2022/01/18 05:39:44;;;;;;;1.50;1.30;;;4.90;98.00;;;;;;5094607;28;20483;-67
2022/01/18 05:42:13;;;;;;;2.20;1.60;;;4.90;98.00;;;;;;5094455;28;20457;-66
2022/01/18 05:44:40;;;;;;;1.43;1.37;;;4.90;98.00;;;;;;5094585;28;20448;-66
2022/01/18 05:47:07;;;;;;;1.90;1.30;;;5.00;98.00;;;;;;5094337;28;20488;-66
2022/01/18 05:49:34;;;;;;;1.10;1.00;;;5.00;98.00;;;;;;5094425;28;20450;-66
2022/01/18 05:52:01;;;;;;;1.63;1.50;;;5.00;98.00;;;;;;5094381;28;20511;-67
2022/01/18 05:54:28;;;;;;;1.40;1.30;;;5.10;98.00;;;;;;5094477;28;20967;-66
2022/01/18 05:56:54;;;;;;;1.40;1.30;;;5.00;98.00;;;;;;5093123;28;20876;-65
2022/01/18 05:59:33;;;;;;;1.60;1.20;;;5.00;98.00;;;;;;5094450;28;20446;-66
2022/01/18 06:02:03;;;;;;;1.20;1.13;;;4.90;98.00;;;;;;5093180;28;20538;-66
2022/01/18 06:07:14;;;;;;;2.80;1.70;;;4.90;98.00;;;;;;5094364;28;20449;-66
2022/01/18 06:09:42;;;;;;;1.70;1.50;;;4.80;98.00;;;;;;5094227;28;20452;-66
2022/01/18 06:12:10;;;;;;;1.57;1.27;;;4.80;98.00;;;;;;5094140;28;20487;-66
2022/01/18 06:14:38;;;;;;;1.33;1.00;;;4.80;98.00;;;;;;5094250;28;21009;-66
2022/01/18 06:17:06;;;;;;;1.20;1.20;;;4.90;98.00;;;;;;5093897;28;20859;-66
2022/01/18 06:19:33;;;;;;;2.90;1.57;;;4.90;98.00;;;;;;5093882;28;20554;-67
2022/01/18 06:22:00;;;;;;;3.17;2.47;;;4.90;98.00;;;;;;5093747;28;20493;-66
2022/01/18 06:24:27;;;;;;;1.50;1.23;;;4.90;98.00;;;;;;5093601;28;20827;-66
2022/01/18 06:26:54;;;;;;;1.10;1.07;;;4.90;98.00;;;;;;5093609;28;20496;-66
2022/01/18 06:29:21;;;;;;;4.07;2.80;;;5.00;98.00;;;;;;5093632;28;20500;-66
2022/01/18 06:31:51;;;;;;;2.33;1.90;;;4.90;98.00;;;;;;5093290;28;20542;-65
2022/01/18 06:34:18;;;;;;;1.10;1.10;;;4.90;98.00;;;;;;5093022;28;20454;-67
2022/01/18 06:36:47;;;;;;;1.50;1.43;;;4.90;98.00;;;;;;5093294;28;20922;-66
2022/01/18 06:39:16;;;;;;;1.30;1.20;;;4.80;98.00;;;;;;5092657;28;20455;-66
2022/01/18 06:41:44;;;;;;;1.93;1.73;;;4.80;98.00;;;;;;5093189;28;20600;-66
2022/01/18 06:44:11;;;;;;;2.40;1.20;;;4.70;98.00;;;;;;5093126;28;20500;-66
2022/01/18 06:46:38;;;;;;;1.67;1.57;;;4.60;98.00;;;;;;5093024;28;20461;-66
2022/01/18 06:49:06;;;;;;;1.67;1.53;;;4.60;98.00;;;;;;5093087;28;20488;-66
2022/01/18 06:51:33;;;;;;;1.80;1.50;;;4.60;98.00;;;;;;5092976;28;20518;-66
2022/01/18 06:54:00;;;;;;;2.37;2.17;;;4.50;98.00;;;;;;5093169;28;21083;-66
2022/01/18 06:56:27;;;;;;;1.20;1.13;;;4.40;98.00;;;;;;5091713;28;20900;-66
2022/01/18 06:58:55;;;;;;;2.60;2.00;;;4.50;98.00;;;;;;5092717;28;20449;-67
2022/01/18 07:01:23;;;;;;;1.40;1.37;;;4.50;98.00;;;;;;5093223;28;20591;-66
2022/01/18 07:03:51;;;;;;;1.73;1.37;;;4.40;98.00;;;;;;5093095;28;20457;-67
2022/01/18 07:06:19;;;;;;;1.10;1.10;;;4.30;98.00;;;;;;5093088;28;20464;-66
2022/01/18 07:08:46;;;;;;;1.87;1.67;;;4.40;98.00;;;;;;5092759;28;20492;-66
2022/01/18 07:11:13;;;;;;;2.67;1.67;;;4.40;98.00;;;;;;5090978;28;20463;-66
2022/01/18 07:13:40;;;;;;;1.20;1.20;;;4.40;98.00;;;;;;5093006;28;20511;-66
2022/01/18 07:16:08;;;;;;;1.27;1.20;;;4.40;98.00;;;;;;5092867;28;20480;-66
2022/01/18 07:18:35;;;;;;;2.27;2.07;;;4.50;98.00;;;;;;5092730;28;20485;-66
2022/01/18 07:21:02;;;;;;;1.90;1.43;;;4.40;98.00;;;;;;5092784;28;20495;-66
2022/01/18 07:23:31;;;;;;;1.87;1.77;;;4.40;98.00;;;;;;5092704;28;20562;-66
2022/01/18 07:25:58;;;;;;;1.10;1.00;;;4.40;98.00;;;;;;5092712;28;20979;-66
2022/01/18 07:28:25;;;;;;;5.83;2.13;;;4.30;98.00;;;;;;5092530;28;20490;-66
2022/01/18 07:30:52;;;;;;;1.20;1.20;;;4.30;98.00;;;;;;5092627;28;20490;-66
2022/01/18 07:33:19;;;;;;;1.77;1.40;;;4.30;98.00;;;;;;5091292;28;20518;-67
2022/01/18 07:35:47;;;;;;;1.47;1.40;;;4.20;98.00;;;;;;5092407;28;20493;-66
2022/01/18 07:38:17;;;;;;;1.20;1.13;;;4.20;98.00;;;;;;5092633;28;20457;-67
2022/01/18 07:40:47;;;;;;;1.67;1.67;;;4.30;98.00;;;;;;5092688;28;20468;-67
2022/01/18 07:43:16;;;;;;;1.60;1.50;;;4.40;98.00;;;;;;5092355;28;20479;-66
2022/01/18 07:45:44;;;;;;;1.73;1.63;;;4.50;98.00;;;;;;5092470;28;20823;-67
2022/01/18 07:48:12;;;;;;;1.30;1.10;;;4.50;98.00;;;;;;5092056;28;20594;-67
2022/01/18 07:50:39;;;;;;;1.40;1.27;;;4.60;98.00;;;;;;5092209;28;20942;-67
2022/01/18 07:53:07;;;;;;;1.70;1.20;;;4.60;98.00;;;;;;5092169;28;20550;-67
2022/01/18 07:55:34;;;;;;;2.07;1.87;;;4.60;98.00;;;;;;5091899;28;20541;-67
2022/01/18 07:58:02;;;;;;;2.03;1.90;;;4.60;98.00;;;;;;5091676;28;20484;-66
2022/01/18 08:00:29;;;;;;;1.50;1.47;;;4.70;98.00;;;;;;5092248;28;20459;-65
2022/01/18 08:02:57;;;;;;;2.57;1.93;;;4.60;98.00;;;;;;5091925;28;20447;-67
2022/01/18 08:05:24;;;;;;;2.70;2.50;;;4.60;98.00;;;;;;5091812;28;20823;-66
2022/01/18 08:07:51;;;;;;;1.87;1.37;;;4.60;98.00;;;;;;5091651;28;20464;-68
2022/01/18 08:10:18;;;;;;;2.20;1.67;;;4.50;98.00;;;;;;5091942;28;20484;-66
2022/01/18 08:12:46;;;;;;;1.10;1.00;;;4.60;98.00;;;;;;5091696;28;20557;-66
2022/01/18 08:15:19;;;;;;;1.10;1.00;;;4.60;98.00;;;;;;5091786;28;20460;-66
2022/01/18 08:17:49;;;;;;;2.47;2.20;;;4.60;98.00;;;;;;5091754;28;20540;-67
2022/01/18 08:20:18;;;;;;;1.10;1.10;;;4.70;98.00;;;;;;5091214;28;20534;-66
2022/01/18 08:22:46;;;;;;;1.90;1.80;;;4.70;98.00;;;;;;5091710;28;20452;-67
2022/01/18 08:25:14;;;;;;;2.17;1.83;;;4.80;98.00;;;;;;5090560;28;20462;-68
2022/01/18 08:27:42;;;;;;;2.13;1.87;;;4.90;98.00;;;;;;5089305;28;20914;-69
2022/01/18 08:30:11;;;;;;;1.40;1.30;;;4.90;98.00;;;;;;5100276;28;20452;-68
2022/01/18 08:32:40;;;;;;;1.40;1.30;;;5.00;98.00;;;;;;5107164;28;20480;-67
2022/01/18 08:35:09;;;;;;;1.30;1.30;;;5.00;98.00;;;;;;5099266;28;20543;-67
2022/01/18 08:37:36;;;;;;;1.77;1.70;;;4.90;98.00;;;;;;5091139;28;20942;-67
2022/01/18 08:40:03;;;;;;;1.63;1.33;;;4.90;98.00;;;;;;5099419;28;20538;-67
2022/01/18 08:42:30;;;;;;;1.07;1.07;;;5.20;98.00;;;;;;5098134;28;20489;-67
2022/01/18 08:44:57;;;;;;;1.30;1.20;;;7.00;98.00;;;;;;5098709;28;20482;-67
2022/01/18 08:47:25;;;;;;;2.80;1.80;;;8.40;98.00;;;;;;5107812;28;20530;-67
2022/01/18 08:49:54;;;;;;;1.57;1.50;;;9.20;98.00;;;;;;5104134;28;20445;-67
2022/01/18 08:52:22;;;;;;;3.20;2.10;;;9.00;98.00;;;;;;5098787;28;20573;-68
2022/01/18 08:54:49;;;;;;;1.40;1.23;;;8.60;98.00;;;;;;5090138;28;20562;-65
2022/01/18 08:57:17;;;;;;;1.90;1.63;;;8.20;98.00;;;;;;5089878;28;20520;-68
2022/01/18 08:59:45;;;;;;;2.10;1.97;;;7.60;98.00;;;;;;5098978;28;20570;-68
2022/01/18 09:02:13;;;;;;;1.57;1.50;;;7.50;98.00;;;;;;5099186;28;20492;-68
2022/01/18 09:04:40;;;;;;;2.77;1.67;;;7.10;98.00;;;;;;5090031;28;20495;-67
2022/01/18 09:07:10;;;;;;;1.47;1.20;;;7.00;98.00;;;;;;5102075;28;20481;-67
2022/01/18 09:09:39;;;;;;;1.70;1.63;;;6.90;98.00;;;;;;5091826;28;20448;-66
2022/01/18 09:12:10;;;;;;;1.23;1.07;;;6.80;98.00;;;;;;5090319;28;20485;-67
2022/01/18 09:14:37;;;;;;;1.60;1.23;;;7.00;98.00;;;;;;5096223;28;20597;-67
2022/01/18 09:17:05;;;;;;;1.40;1.30;;;7.00;98.00;;;;;;5099448;28;21041;-67
2022/01/18 09:19:34;;;;;;;1.80;1.70;;;7.00;98.00;;;;;;5090732;28;20546;-66
2022/01/18 09:22:03;;;;;;;1.37;1.20;;;7.00;98.00;;;;;;5089909;28;20545;-67
2022/01/18 09:24:32;;;;;;;1.83;1.77;;;6.90;98.00;;;;;;5090227;28;20452;-67
2022/01/18 09:27:00;;;;;;;1.20;1.20;;;6.50;98.00;;;;;;5084512;28;20457;-64
2022/01/18 09:29:27;;;;;;;2.20;2.00;;;6.30;98.00;;;;;;5099902;28;20534;-66
2022/01/18 09:31:55;;;;;;;1.70;1.67;;;6.10;98.00;;;;;;5100526;28;20462;-65
2022/01/18 09:34:22;;;;;;;1.37;1.30;;;6.20;98.00;;;;;;5109600;28;20488;-65
2022/01/18 09:36:49;;;;;;;2.60;2.17;;;6.20;98.00;;;;;;5111208;28;20550;-64
2022/01/18 09:39:16;;;;;;;1.40;1.30;;;6.20;98.00;;;;;;5101305;28;20602;-64
2022/01/18 09:41:50;;;;;;;1.20;1.00;;;6.20;98.00;;;;;;5094927;28;20458;-65
2022/01/18 09:44:17;;;;;;;1.43;1.33;;;6.30;98.00;;;;;;5102491;28;20465;-64
2022/01/18 09:46:45;;;;;;;1.20;1.20;;;6.40;98.00;;;;;;5092465;28;20464;-65
2022/01/18 09:49:13;;;;;;;1.30;1.30;;;6.30;98.00;;;;;;5090835;28;20540;-65
2022/01/18 09:51:40;;;;;;;1.67;1.30;;;6.40;98.00;;;;;;5110182;28;20556;-65
2022/01/18 09:54:07;;;;;;;1.20;1.00;;;6.40;98.00;;;;;;5103708;28;20581;-65
2022/01/18 09:56:34;;;;;;;2.20;1.30;;;6.30;98.00;;;;;;5097205;28;20534;-65
2022/01/18 09:59:03;;;;;;;2.23;1.67;;;6.40;98.00;;;;;;5095077;28;20524;-65
2022/01/18 10:01:30;;;;;;;1.87;1.83;;;6.20;98.00;;;;;;5101307;28;20497;-68
2022/01/18 10:04:13;;;;;;;1.67;1.10;;;6.30;98.00;;;;;;5098214;28;20515;-67
2022/01/18 10:06:42;;;;;;;2.50;2.00;;;6.40;98.00;;;;;;5093893;28;20538;-66
2022/01/18 10:09:12;;;;;;;1.20;1.10;;;6.40;98.00;;;;;;5110394;28;20554;-68
2022/01/18 10:12:15;;;;;;;1.40;1.30;;;6.30;98.00;;;;;;5101921;27;20459;-68
2022/01/18 10:14:53;;;;;;;1.20;1.10;;;6.40;98.00;;;;;;5090750;28;20487;-68
2022/01/18 10:17:30;;;;;;;1.20;1.10;;;6.40;98.00;;;;;;5110957;28;20472;-67
2022/01/18 10:20:08;;;;;;;1.67;1.57;;;6.40;98.00;;;;;;5101195;28;20457;-67
2022/01/18 10:22:41;;;;;;;1.20;1.20;;;6.40;98.00;;;;;;5101945;28;20802;-66
2022/01/18 10:25:17;;;;;;;1.83;1.43;;;6.50;98.00;;;;;;5100743;28;20454;-66
2022/01/18 10:27:47;;;;;;;1.30;1.17;;;6.60;98.00;;;;;;5109730;28;20554;-67
2022/01/18 10:30:25;;;;;;;1.80;1.50;;;6.70;98.00;;;;;;5101150;28;20533;-66
2022/01/18 10:33:08;;;;;;;1.40;1.40;;;6.50;98.00;;;;;;5092287;28;20883;-67
2022/01/18 10:35:35;;;;;;;1.20;1.10;;;6.50;98.00;;;;;;5100286;28;20490;-67
2022/01/18 10:38:16;;;;;;;1.73;1.23;;;6.40;98.00;;;;;;5108461;28;20463;-67
2022/01/18 10:40:43;;;;;;;1.20;1.00;;;6.30;98.00;;;;;;5108447;28;20516;-67
2022/01/18 10:43:27;;;;;;;2.27;1.83;;;6.10;98.00;;;;;;5095639;28;20955;-68
2022/01/18 10:46:12;;;;;;;1.77;1.47;;;6.00;98.00;;;;;;5091488;28;20587;-69
2022/01/18 10:48:46;;;;;;;1.80;1.10;;;6.10;98.00;;;;;;5100809;28;20489;-68
2022/01/18 10:51:26;;;;;;;1.80;1.73;;;6.30;98.00;;;;;;5098235;28;20536;-69
2022/01/18 10:53:58;;;;;;;5.00;1.97;;;6.20;98.00;;;;;;5099507;28;20847;-67
2022/01/18 10:56:25;;;;;;;1.63;1.57;;;6.10;98.00;;;;;;5091870;28;20463;-66
2022/01/18 10:58:55;;;;;;;1.83;1.20;;;6.10;98.00;;;;;;5092933;28;21211;-67
2022/01/18 11:01:24;;;;;;;1.20;1.00;;;6.00;98.00;;;;;;5099504;28;20457;-67
2022/01/18 11:04:11;;;;;;;1.97;1.20;;;6.20;98.00;;;;;;5093001;28;20566;-67
2022/01/18 11:06:39;;;;;;;1.20;1.00;;;6.30;98.00;;;;;;5099855;28;20943;-66
2022/01/18 11:09:14;;;;;;;1.20;1.20;;;6.20;98.00;;;;;;5108464;28;20499;-67
2022/01/18 11:11:46;;;;;;;1.20;1.10;;;6.30;98.00;;;;;;5104244;28;20510;-68
2022/01/18 11:14:17;;;;;;;1.80;1.17;;;6.10;98.00;;;;;;5091488;28;20512;-67
2022/01/18 11:16:46;;;;;;;1.43;1.30;;;6.10;98.00;;;;;;5092038;28;20458;-66
2022/01/18 11:19:29;;;;;;;1.43;1.40;;;6.00;98.00;;;;;;5091229;28;20522;-66
2022/01/18 11:21:59;;;;;;;1.20;1.10;;;6.00;98.00;;;;;;5092673;28;20538;-66
2022/01/18 11:24:28;;;;;;;1.77;1.27;;;6.20;98.00;;;;;;5091465;28;20493;-66
2022/01/18 11:26:57;;;;;;;2.07;1.30;;;6.40;98.00;;;;;;5092675;28;20451;-65
2022/01/18 11:29:26;;;;;;;1.30;1.27;;;6.70;98.00;;;;;;5092718;28;20455;-66
2022/01/18 11:31:56;;;;;;;2.17;1.40;;;6.90;98.00;;;;;;5092347;28;20484;-65
2022/01/18 11:34:30;;;;;;;1.20;1.00;;;7.00;98.00;;;;;;5092276;28;21022;-67
2022/01/18 11:37:09;;;;;;;1.33;1.17;;;7.10;98.00;;;;;;5092442;28;20488;-67
2022/01/18 11:39:36;;;;;;;1.30;1.30;;;7.10;98.00;;;;;;5092490;28;20498;-66
2022/01/18 11:42:08;;;;;;;1.47;1.20;;;7.20;98.00;;;;;;5092408;28;20449;-65
2022/01/18 11:44:36;;;;;;;1.70;1.43;;;7.30;98.00;;;;;;5092605;28;20456;-65
2022/01/18 11:47:05;;;;;;;1.20;1.00;;;7.40;98.00;;;;;;5092025;28;20503;-66
2022/01/18 11:49:33;;;;;;;1.20;1.20;;;7.50;98.00;;;;;;5092279;28;20450;-65
2022/01/18 11:52:05;;;;;;;1.40;1.30;;;7.40;98.00;;;;;;5091214;28;20473;-66
2022/01/18 11:54:43;;;;;;;1.20;1.03;;;7.30;98.00;;;;;;5091463;28;20486;-65
2022/01/18 11:57:34;;;;;;;1.40;1.10;;;7.20;98.00;;;;;;5092043;28;20488;-65
2022/01/18 12:00:21;;;;;;;1.40;1.20;;;7.00;98.00;;;;;;5086696;28;20545;-66
2022/01/18 12:02:54;;;;;;;1.40;1.23;;;6.80;98.00;;;;;;5091878;28;20467;-65
2022/01/18 12:05:24;;;;;;;3.43;1.30;;;6.70;98.00;;;;;;5092026;28;20461;-65
2022/01/18 12:07:54;;;;;;;1.70;1.23;;;6.50;98.00;;;;;;5090544;28;20532;-65
2022/01/18 12:10:44;;;;;;;1.20;1.00;;;6.50;98.00;;;;;;5091493;28;20487;-67
2022/01/18 12:13:14;;;;;;;1.30;1.20;;;6.60;98.00;;;;;;5091652;28;20511;-67
2022/01/18 12:15:51;;;;;;;1.20;1.20;;;6.60;98.00;;;;;;5091989;28;20452;-67
2022/01/18 12:18:21;;;;;;;1.20;1.00;;;6.60;98.00;;;;;;5091370;28;20457;-66
2022/01/18 12:20:49;;;;;;;1.50;1.30;;;6.60;98.00;;;;;;5090817;28;21029;-66
2022/01/18 12:23:18;;;;;;;1.20;1.00;;;6.90;98.00;;;;;;5090362;28;20540;-66
2022/01/18 12:25:58;;;;;;;4.70;2.00;;;7.00;98.00;;;;;;5090418;28;20514;-66
2022/01/18 12:28:50;;;;;;;1.30;1.10;;;7.00;98.00;;;;;;5091594;28;20587;-66
2022/01/18 12:35:02;;;;;;;1.20;1.00;;;7.40;98.00;;;;;;5091756;28;20485;-66
2022/01/18 12:37:47;;;;;;;1.20;1.00;;;7.90;98.00;;;;;;5091601;28;20451;-66
2022/01/18 12:40:35;;;;;;;1.30;1.30;;;8.20;98.00;;;;;;5091707;28;20538;-66
2022/01/18 12:45:56;;;;;;;1.53;1.30;;;9.20;98.00;;;;;;5091564;28;20442;-66
2022/01/18 12:48:23;;;;;;;1.30;1.10;;;9.50;98.00;;;;;;5091418;28;20462;-67
2022/01/18 12:51:03;;;;;;;1.20;1.10;;;9.70;98.00;;;;;;5091558;28;20878;-67
2022/01/18 12:53:33;;;;;;;1.20;1.00;;;9.90;98.00;;;;;;5091471;28;20835;-67
2022/01/18 12:56:02;;;;;;;1.20;1.00;;;10.20;98.00;;;;;;5091401;28;20522;-66
2022/01/18 12:58:31;;;;;;;1.30;1.20;;;10.50;98.00;;;;;;5091417;28;20546;-67
2022/01/18 13:01:01;;;;;;;1.30;1.30;;;10.90;98.00;;;;;;5091464;28;20542;-67
2022/01/18 13:03:33;;;;;;;1.60;1.20;;;11.40;98.00;;;;;;5091192;28;20501;-67
2022/01/18 13:06:03;;;;;;;4.33;1.47;;;11.90;98.00;;;;;;5093238;28;20512;-67
2022/01/18 13:08:43;;;;;;;1.20;1.13;;;12.20;98.00;;;;;;5095329;28;20447;-67
2022/01/18 13:11:11;;;;;;;1.20;1.00;;;12.40;98.00;;;;;;5095163;28;20480;-67
2022/01/18 13:13:39;;;;;;;1.20;1.10;;;12.20;98.00;;;;;;5095016;28;20586;-67
2022/01/18 13:27:32;;;;;;;1.20;1.10;;;12.10;98.00;;;;;;5094615;28;20529;-67
2022/01/18 13:30:15;;;;;;;1.20;1.10;;;11.90;98.00;;;;;;5094841;28;20532;-67
2022/01/18 13:32:42;;;;;;;1.40;1.23;;;11.50;98.00;;;;;;5094709;28;20461;-67
2022/01/18 13:35:10;;;;;;;1.20;1.00;;;11.40;98.00;;;;;;5094501;28;20518;-67
2022/01/18 13:37:38;;;;;;;2.43;1.30;;;10.90;98.00;;;;;;5094465;28;20491;-66
2022/01/18 13:40:09;;;;;;;1.20;0.90;;;10.80;98.00;;;;;;5094516;28;20467;-67
2022/01/18 13:42:38;;;;;;;1.20;1.00;;;10.40;98.00;;;;;;5094280;28;20463;-66
2022/01/18 13:45:28;;;;;;;2.27;1.10;;;10.30;98.00;;;;;;5094429;28;20518;-66
2022/01/18 13:48:03;;;;;;;1.53;1.20;;;9.90;98.00;;;;;;5094045;28;20497;-66
2022/01/18 13:50:39;;;;;;;1.20;1.00;;;9.30;98.00;;;;;;5094430;28;20458;-67
2022/01/18 13:53:10;;;;;;;1.20;1.10;;;8.90;98.00;;;;;;5094245;28;20452;-67
2022/01/18 13:55:44;;;;;;;1.20;1.10;;;8.70;98.00;;;;;;5094299;28;20525;-66
2022/01/18 13:58:12;;;;;;;1.50;1.37;;;8.70;98.00;;;;;;5094292;28;20455;-67
2022/01/18 14:00:39;;;;;;;1.20;1.00;;;8.50;98.00;;;;;;5094128;28;20483;-67
2022/01/18 14:03:06;;;;;;;1.20;0.90;;;8.40;98.00;;;;;;5093973;28;20487;-66
2022/01/18 14:05:33;;;;;;;1.20;0.90;;;8.30;98.00;;;;;;5094203;28;20889;-66
2022/01/18 14:08:11;;;;;;;1.20;1.00;;;8.30;98.00;;;;;;5094030;28;20484;-67
2022/01/18 14:10:38;;;;;;;1.20;1.00;;;8.30;98.00;;;;;;5094015;28;20447;-67
2022/01/18 14:13:07;;;;;;;1.20;0.90;;;8.20;98.00;;;;;;5093908;28;20674;-67
2022/01/18 14:15:40;;;;;;;1.20;1.00;;;8.30;98.00;;;;;;5093810;28;20542;-67